Time;durP1;ratioP1;P1;durP2;ratioP2;P2;SDS_P1;SDS_P2;PMS_P1;PMS_P2;Temp;Humidity;BMP_temperature;BMP_pressure;BME280_temperature;BME280_humidity;BME280_pressure;Samples;Min_cycle;Max_cycle;Signal;HPM_P1;HPM_P2
2022/02/16 00:02:19;;;;;;;128.70;63.70;;;;;;;4.83;59.10;98852.68;218842;1287;141370;-59
2022/02/16 00:07:22;;;;;;;138.30;64.90;;;;;;;4.76;59.00;98850.14;218985;1287;140036;-57
2022/02/16 00:12:25;;;;;;;127.90;64.50;;;;;;;4.73;59.08;98850.08;218842;1287;141342;-61
2022/02/16 00:17:30;;;;;;;127.10;64.10;;;;;;;4.70;58.94;98839.66;219109;1287;139012;-62
2022/02/16 00:22:33;;;;;;;126.40;63.70;;;;;;;4.68;59.15;98827.44;219002;1287;140320;-59
2022/02/16 00:27:37;;;;;;;130.10;64.70;;;;;;;4.65;59.06;98818.63;218986;1287;141006;-61
2022/02/16 00:32:40;;;;;;;128.40;62.50;;;;;;;4.63;59.48;98818.52;219101;1287;139877;-61
2022/02/16 00:37:45;;;;;;;130.00;63.00;;;;;;;4.61;59.43;98826.88;219078;1286;139814;-61
2022/02/16 00:42:48;;;;;;;123.70;62.90;;;;;;;4.58;59.51;98822.23;219131;1286;139074;-60
2022/02/16 00:47:51;;;;;;;116.20;60.30;;;;;;;4.56;59.90;98822.50;219096;1287;139172;-58
2022/02/16 00:52:54;;;;;;;134.10;62.50;;;;;;;4.56;59.90;98822.36;219087;1287;139026;-58
2022/02/16 00:57:57;;;;;;;123.00;60.30;;;;;;;4.58;59.92;98815.58;219180;1287;139705;-59
2022/02/16 01:03:02;;;;;;;118.80;61.10;;;;;;;4.69;60.08;98809.80;218844;1287;141171;-60
2022/02/16 01:08:09;;;;;;;127.40;63.10;;;;;;;4.79;59.96;98800.97;218860;1287;139047;-57
2022/02/16 01:13:12;;;;;;;128.70;63.30;;;;;;;4.86;60.41;98795.58;218991;1287;139584;-60
2022/02/16 01:18:16;;;;;;;117.50;60.30;;;;;;;4.92;60.27;98794.26;218846;1288;139779;-60
2022/02/16 01:23:21;;;;;;;;;;;;;;;4.98;60.12;98788.55;219192;1287;139466;-59
2022/02/16 01:28:25;;;;;;;111.40;57.20;;;;;;;4.99;60.24;98780.27;218855;1287;125492;-60
2022/02/16 01:33:29;;;;;;;107.50;58.00;;;;;;;4.97;60.60;98775.58;218990;1287;139490;-60
2022/02/16 01:38:32;;;;;;;119.30;60.20;;;;;;;5.03;60.50;98765.30;219114;1286;139340;-58
2022/02/16 01:43:49;;;;;;;112.90;58.20;;;;;;;5.11;60.51;98761.80;218868;1287;139786;-60
2022/02/16 01:48:54;;;;;;;117.90;59.30;;;;;;;5.13;60.65;98758.02;218855;1287;139668;-58
2022/02/16 01:53:57;;;;;;;127.50;61.00;;;;;;;5.10;60.35;98754.10;218805;1287;139368;-57
2022/02/16 01:59:00;;;;;;;126.60;64.10;;;;;;;5.06;60.56;98749.91;219338;1284;140150;-59
2022/02/16 02:04:22;;;;;;;121.50;65.20;;;;;;;5.03;60.34;98743.52;219366;1284;139622;-60
2022/02/16 02:09:28;;;;;;;121.90;65.20;;;;;;;5.01;60.48;98733.77;219204;1286;140429;-57
2022/02/16 02:14:31;;;;;;;121.00;64.50;;;;;;;5.00;60.72;98733.10;219256;1286;139678;-56
2022/02/16 02:19:40;;;;;;;122.10;64.30;;;;;;;4.97;60.54;98726.90;219054;1286;139429;-61
2022/02/16 02:24:44;;;;;;;129.10;68.50;;;;;;;4.92;60.58;98715.88;219062;1286;140435;-58
2022/02/16 02:29:47;;;;;;;127.30;65.70;;;;;;;4.91;60.50;98715.06;218963;1287;139755;-58
2022/02/16 02:34:52;;;;;;;118.10;62.90;;;;;;;4.87;60.47;98711.17;219037;1286;140162;-58
2022/02/16 02:39:55;;;;;;;122.30;66.10;;;;;;;4.82;60.48;98719.13;218842;1287;139185;-59
2022/02/16 02:45:02;;;;;;;133.10;68.00;;;;;;;4.79;60.59;98721.19;219298;1286;139482;-59
2022/02/16 02:50:09;;;;;;;130.90;63.80;;;;;;;4.80;60.42;98718.52;219145;1286;140878;-59
2022/02/16 02:55:14;;;;;;;134.50;67.50;;;;;;;4.82;60.76;98712.79;218928;1287;139761;-57
2022/02/16 03:00:18;;;;;;;126.30;67.70;;;;;;;4.86;60.83;98702.06;219114;1286;139875;-57
2022/02/16 03:05:23;;;;;;;130.40;66.00;;;;;;;4.92;61.06;98702.69;219177;1286;139692;-59
2022/02/16 03:10:26;;;;;;;124.60;65.10;;;;;;;4.90;60.88;98702.23;218971;1286;139557;-57
2022/02/16 03:15:30;;;;;;;122.90;65.70;;;;;;;4.89;60.69;98700.71;218971;1286;139157;-60
2022/02/16 03:20:33;;;;;;;120.90;64.40;;;;;;;4.85;60.79;98696.70;219275;1286;139556;-58
2022/02/16 03:25:36;;;;;;;127.20;64.50;;;;;;;4.78;60.74;98697.67;218904;1286;139511;-59
2022/02/16 03:30:42;;;;;;;122.70;62.90;;;;;;;4.77;61.14;98699.50;219238;1286;139760;-59
2022/02/16 03:36:06;;;;;;;111.80;60.80;;;;;;;4.81;61.28;98708.27;218868;1287;139172;-61
2022/02/16 03:41:09;;;;;;;107.90;60.40;;;;;;;4.82;61.12;98701.36;219150;1287;139291;-60
2022/02/16 03:46:12;;;;;;;116.30;61.40;;;;;;;4.82;61.43;98708.92;219097;1286;140476;-59
2022/02/16 03:51:18;;;;;;;113.90;60.00;;;;;;;4.83;61.63;98709.95;218989;1286;139686;-60
2022/02/16 03:56:21;;;;;;;112.90;62.90;;;;;;;4.83;61.49;98711.19;219173;1285;138870;-60
2022/02/16 04:01:26;;;;;;;112.80;60.50;;;;;;;4.83;61.50;98706.95;219021;1287;141026;-60
2022/02/16 04:06:29;;;;;;;122.50;63.80;;;;;;;4.84;61.80;98706.92;218988;1287;139513;-57
2022/02/16 04:11:33;;;;;;;115.50;59.80;;;;;;;4.86;61.60;98701.19;219114;1286;139288;-58
2022/02/16 04:16:36;;;;;;;122.70;62.10;;;;;;;4.95;61.92;98707.11;219306;1286;139950;-57
2022/02/16 04:21:39;;;;;;;120.80;62.60;;;;;;;5.04;61.84;98703.36;219215;1286;140214;-55
2022/02/16 04:26:43;;;;;;;125.40;64.90;;;;;;;5.11;61.99;98698.33;219122;1286;139099;-55
2022/02/16 04:31:46;;;;;;;123.40;64.50;;;;;;;5.13;61.53;98696.30;219237;1286;139457;-55
2022/02/16 04:36:50;;;;;;;119.10;63.80;;;;;;;5.15;61.49;98692.14;218950;1286;139628;-56
2022/02/16 04:41:54;;;;;;;131.70;66.60;;;;;;;5.14;61.49;98684.13;219218;1286;139206;-57
2022/02/16 04:46:58;;;;;;;120.10;64.00;;;;;;;5.15;61.78;98685.81;219176;1285;268520;-58
2022/02/16 04:52:03;;;;;;;118.20;61.60;;;;;;;5.17;61.39;98686.63;218943;1286;139303;-59
2022/02/16 04:57:07;;;;;;;108.10;57.50;;;;;;;5.20;62.01;98682.78;218992;1287;139825;-57
2022/02/16 05:02:15;;;;;;;106.50;58.30;;;;;;;5.26;61.80;98684.83;219010;1286;139765;-58
2022/02/16 05:07:20;;;;;;;104.60;56.90;;;;;;;5.26;61.79;98689.53;219286;1286;139226;-57
2022/02/16 05:12:26;;;;;;;104.00;54.50;;;;;;;5.30;61.62;98691.31;219015;1286;139500;-57
2022/02/16 05:17:30;;;;;;;121.60;59.40;;;;;;;5.29;61.35;98691.50;219355;1286;139775;-57
2022/02/16 05:22:34;;;;;;;105.10;55.60;;;;;;;5.34;61.50;98688.31;219213;1286;140852;-58
2022/02/16 05:27:38;;;;;;;106.80;55.30;;;;;;;5.45;61.68;98686.02;218735;1287;140582;-58
2022/02/16 05:32:41;;;;;;;110.00;56.80;;;;;;;5.53;61.66;98692.70;218722;1288;139686;-57
2022/02/16 05:37:44;;;;;;;112.10;58.20;;;;;;;5.56;61.38;98691.64;218899;1287;139274;-57
2022/02/16 05:42:48;;;;;;;113.80;61.10;;;;;;;5.60;61.86;98694.45;218925;1287;139489;-58
2022/02/16 05:47:52;;;;;;;113.80;61.20;;;;;;;5.67;61.65;98699.05;218996;1286;139223;-59
2022/02/16 05:52:55;;;;;;;111.10;60.30;;;;;;;5.72;61.57;98690.36;219473;1286;138823;-57
2022/02/16 05:57:58;;;;;;;113.20;59.60;;;;;;;5.76;61.92;98682.63;219022;1284;140035;-59
2022/02/16 06:03:03;;;;;;;110.90;61.90;;;;;;;5.78;62.03;98679.69;219223;1285;139408;-60
2022/02/16 06:08:06;;;;;;;446.30;297.20;;;;;;;5.79;62.22;98674.17;219099;1286;152692;-58
2022/02/16 06:13:12;;;;;;;140.50;72.60;;;;;;;5.84;62.41;98676.05;219055;1286;139973;-57
2022/02/16 06:18:15;;;;;;;128.10;66.30;;;;;;;5.80;62.25;98671.86;219210;1285;139288;-58
2022/02/16 06:23:18;;;;;;;114.00;58.00;;;;;;;5.73;62.35;98670.30;219290;1286;139668;-60
2022/02/16 06:28:22;;;;;;;124.30;61.90;;;;;;;5.72;62.50;98665.59;219140;1284;139630;-58
2022/02/16 06:33:26;;;;;;;97.60;51.50;;;;;;;5.77;62.50;98660.02;218855;1286;139330;-58
2022/02/16 06:38:29;;;;;;;230.20;151.10;;;;;;;5.86;62.50;98662.21;219159;1285;139929;-57
2022/02/16 06:43:34;;;;;;;108.20;59.00;;;;;;;5.99;62.83;98658.77;219101;1286;140235;-59
2022/02/16 06:48:37;;;;;;;91.50;50.50;;;;;;;6.13;62.58;98638.02;218925;1284;139197;-59
2022/02/16 06:53:40;;;;;;;92.10;49.70;;;;;;;6.07;62.22;98632.33;219253;1284;139740;-60
2022/02/16 06:58:44;;;;;;;94.70;52.20;;;;;;;6.07;62.42;98628.62;219211;1284;138900;-60
2022/02/16 07:03:48;;;;;;;91.00;50.30;;;;;;;6.15;62.34;98626.29;219245;1286;139070;-59
2022/02/16 07:08:58;;;;;;;88.80;48.20;;;;;;;6.12;62.34;98615.89;219102;1286;138919;-59
2022/02/16 07:14:03;;;;;;;86.40;48.50;;;;;;;6.08;62.07;98615.23;219178;1285;138987;-60
2022/02/16 07:19:06;;;;;;;;;;;;;;;6.03;62.30;98602.78;218875;1286;140365;-59
2022/02/16 07:24:11;;;;;;;86.20;47.10;;;;;;;6.00;62.46;98591.84;219207;1285;126973;-60
2022/02/16 07:30:07;;;;;;;84.00;44.70;;;;;;;6.02;62.40;98578.56;219635;1273;139964;31
2022/02/16 07:35:12;;;;;;;72.20;41.80;;;;;;;6.08;62.86;98570.68;218236;1289;140021;-58
2022/02/16 07:40:16;;;;;;;76.00;42.00;;;;;;;6.15;62.88;98568.38;218185;1288;139785;-58
2022/02/16 07:45:20;;;;;;;74.70;39.90;;;;;;;6.25;63.01;98575.20;218471;1289;139458;-57
2022/02/16 07:50:24;;;;;;;73.50;39.70;;;;;;;6.34;62.96;98579.72;218358;1289;139857;-58
2022/02/16 07:56:03;;;;;;;66.30;37.50;;;;;;;6.36;62.99;98575.70;217529;1289;139309;-59
2022/02/16 08:01:08;;;;;;;86.70;50.30;;;;;;;6.43;63.31;98575.36;218386;1289;139214;-59
2022/02/16 08:06:17;;;;;;;75.80;40.70;;;;;;;6.58;63.23;98572.98;218585;1288;139166;-59
2022/02/16 08:11:21;;;;;;;74.70;41.90;;;;;;;6.69;63.31;98574.35;218429;1288;139100;-58
2022/02/16 08:16:28;;;;;;;72.00;39.50;;;;;;;6.76;62.87;98571.83;218909;1277;139148;-58
2022/02/16 08:21:42;;;;;;;72.40;41.20;;;;;;;6.76;62.75;98562.14;218290;1288;140530;-59
2022/02/16 08:26:46;;;;;;;67.50;39.60;;;;;;;6.77;62.79;98556.06;218206;1288;140544;-59
2022/02/16 08:31:52;;;;;;;70.50;39.70;;;;;;;6.85;62.97;98557.59;218419;1289;139095;-58
2022/02/16 08:37:15;;;;;;;68.50;38.20;;;;;;;7.01;63.15;98544.02;218378;1289;139676;-58
2022/02/16 08:42:18;;;;;;;72.40;39.30;;;;;;;7.22;63.22;98529.42;218279;1290;139367;-59
2022/02/16 08:47:21;;;;;;;182.30;102.80;;;;;;;7.45;63.31;98520.50;218485;1289;139114;-60
2022/02/16 08:52:25;;;;;;;68.90;39.40;;;;;;;7.74;63.38;98517.98;218508;1288;140188;-58
2022/02/16 08:57:28;;;;;;;69.10;38.90;;;;;;;7.97;63.05;98516.78;218586;1289;139374;-58
2022/02/16 09:02:31;;;;;;;65.40;38.20;;;;;;;8.12;62.72;98504.91;218383;1289;139082;-59
2022/02/16 09:07:34;;;;;;;60.60;36.30;;;;;;;8.21;62.53;98496.23;218123;1290;139794;-58
2022/02/16 09:12:37;;;;;;;55.20;32.10;;;;;;;8.31;62.27;98497.55;218005;1289;139153;-59
2022/02/16 09:17:40;;;;;;;54.80;30.60;;;;;;;8.43;62.27;98491.90;218259;1289;139400;-59
2022/02/16 09:22:44;;;;;;;46.90;27.40;;;;;;;8.58;61.95;98482.86;218254;1290;140149;-58
2022/02/16 09:27:47;;;;;;;41.40;25.50;;;;;;;8.74;61.84;98481.12;218272;1290;138941;-59
2022/02/16 09:32:50;;;;;;;44.00;25.00;;;;;;;8.91;61.37;98475.80;218346;1287;139304;-60
2022/02/16 09:37:53;;;;;;;50.00;30.80;;;;;;;9.05;61.29;98470.63;217868;1289;139290;-57
2022/02/16 09:43:00;;;;;;;41.40;24.70;;;;;;;9.23;60.79;98462.19;217994;1290;139386;-57
2022/02/16 09:48:05;;;;;;;35.80;21.20;;;;;;;9.29;60.37;98459.73;217993;1290;138914;-55
2022/02/16 09:53:08;;;;;;;32.20;19.30;;;;;;;9.34;59.77;98459.93;217949;1290;139264;-57
2022/02/16 09:58:11;;;;;;;22.50;11.50;;;;;;;9.39;59.84;98443.61;218101;1290;139556;-58
2022/02/16 10:03:14;;;;;;;15.80;8.60;;;;;;;9.47;59.14;98431.04;218287;1288;139801;-58
2022/02/16 10:08:41;;;;;;;272.20;158.50;;;;;;;9.54;58.26;98418.19;217545;1290;139804;-58
2022/02/16 10:13:45;;;;;;;22.20;12.20;;;;;;;9.68;58.46;98404.14;218072;1290;139888;-58
2022/02/16 10:19:02;;;;;;;16.30;7.80;;;;;;;9.78;57.88;98390.66;218248;1289;139134;-58
2022/02/16 10:24:20;;;;;;;17.40;7.80;;;;;;;9.82;57.41;98382.64;218483;1289;139399;-58
2022/02/16 10:29:28;;;;;;;11.40;7.30;;;;;;;9.85;57.29;98375.30;218273;1289;139327;-58
2022/02/16 10:34:51;;;;;;;14.10;6.90;;;;;;;9.93;56.93;98358.96;218146;1290;138985;-58
2022/02/16 10:40:11;;;;;;;27.90;14.70;;;;;;;10.00;56.77;98349.61;218501;1289;139071;-58
2022/02/16 10:45:14;;;;;;;17.60;7.40;;;;;;;10.09;56.89;98339.02;218377;1289;139969;-58
2022/02/16 10:50:19;;;;;;;14.10;7.20;;;;;;;10.11;56.28;98326.32;218494;1289;139797;-58
2022/02/16 10:55:50;;;;;;;14.60;6.10;;;;;;;10.14;56.06;98319.54;218031;1290;139641;-57
2022/02/16 11:00:57;;;;;;;13.20;4.80;;;;;;;10.44;55.88;98302.85;218407;1290;138933;-57
2022/02/16 11:06:05;;;;;;;6.90;4.10;;;;;;;10.78;55.04;98288.70;218985;1288;138993;-58
2022/02/16 11:11:09;;;;;;;5.60;3.50;;;;;;;11.00;53.87;98274.94;218765;1288;141447;-58
2022/02/16 11:16:18;;;;;;;6.40;3.40;;;;;;;11.17;53.29;98264.90;218457;1288;141885;-58
2022/02/16 11:21:22;;;;;;;16.30;4.00;;;;;;;11.37;52.88;98255.90;218646;1288;141323;-58
2022/02/16 11:26:28;;;;;;;8.90;3.00;;;;;;;11.52;52.21;98251.40;218322;1289;139229;-59
2022/02/16 11:31:49;;;;;;;43.50;27.10;;;;;;;11.70;51.76;98237.83;218127;1290;139656;-57
2022/02/16 11:36:58;;;;;;;5.40;3.30;;;;;;;11.96;52.20;98216.47;218046;1290;139878;-59
2022/02/16 11:42:02;;;;;;;7.40;3.10;;;;;;;12.03;50.86;98205.17;218491;1289;139405;-58
2022/02/16 11:47:06;;;;;;;7.10;2.70;;;;;;;12.07;50.25;98193.61;218182;1290;139673;-57
2022/02/16 11:52:34;;;;;;;5.30;2.90;;;;;;;12.11;49.75;98177.33;218228;1290;232991;-60
2022/02/16 11:57:42;;;;;;;5.60;2.90;;;;;;;12.20;49.35;98161.67;218228;1290;139141;-59
2022/02/16 12:03:06;;;;;;;5.50;2.60;;;;;;;12.31;48.66;98153.48;217987;1292;138942;-57
2022/02/16 12:08:17;;;;;;;4.80;2.70;;;;;;;12.42;48.41;98144.02;218390;1289;210803;-59
2022/02/16 12:13:28;;;;;;;5.10;2.70;;;;;;;12.53;48.11;98135.74;218282;1289;140192;-59
2022/02/16 12:18:31;;;;;;;5.70;2.60;;;;;;;12.68;47.34;98121.33;218115;1290;138964;-59
2022/02/16 12:23:45;;;;;;;5.70;3.10;;;;;;;12.90;47.39;98111.65;218321;1290;139490;-59
2022/02/16 12:29:19;;;;;;;5.70;2.40;;;;;;;13.04;46.88;98095.25;218254;1289;139516;-60
2022/02/16 12:34:25;;;;;;;26.20;15.90;;;;;;;13.04;46.31;98084.42;218155;1289;138738;-58
2022/02/16 12:39:29;;;;;;;;;;;;;;;13.14;46.49;98074.76;218429;1290;140225;-60
2022/02/16 12:44:33;;;;;;;5.80;2.90;;;;;;;13.13;45.41;98056.37;218698;1289;125509;-60
2022/02/16 12:49:40;;;;;;;6.00;2.50;;;;;;;13.20;45.88;98051.45;218199;1289;139319;-58
2022/02/16 12:54:43;;;;;;;6.90;2.30;;;;;;;13.29;45.46;98045.31;218358;1290;138848;-58
2022/02/16 13:05:13;;;;;;;45.70;29.30;;;;;;;13.27;43.99;98045.73;218354;1290;139735;-58
2022/02/16 13:10:19;;;;;;;6.60;2.90;;;;;;;13.19;43.22;98039.81;218566;1289;139327;-58
2022/02/16 13:15:24;;;;;;;9.00;3.00;;;;;;;13.02;42.96;98037.38;218313;1290;139499;-59
2022/02/16 13:20:32;;;;;;;7.30;3.00;;;;;;;12.80;42.92;98039.09;218011;1289;139951;-60
2022/02/16 13:25:40;;;;;;;4.90;2.60;;;;;;;12.63;42.63;98034.93;218257;1289;139422;-57
2022/02/16 13:30:44;;;;;;;;;;;;;;;12.49;42.64;98041.08;218359;1290;139478;-59
2022/02/16 13:35:49;;;;;;;5.90;2.90;;;;;;;12.38;42.65;98028.52;218485;1290;125820;-58
2022/02/16 13:41:08;;;;;;;7.20;3.20;;;;;;;12.49;42.37;98024.59;218278;1290;139215;-59
2022/02/16 13:46:45;;;;;;;7.20;3.30;;;;;;;12.62;41.69;98027.70;218325;1289;139807;-60
2022/02/16 13:52:04;;;;;;;7.00;3.20;;;;;;;12.49;41.13;98029.52;218186;1290;138764;-58
2022/02/16 13:57:18;;;;;;;4.00;2.50;;;;;;;12.40;40.77;98022.46;218007;1289;140874;-58
2022/02/16 14:02:23;;;;;;;4.40;3.10;;;;;;;12.25;40.40;98007.96;218198;1290;139754;-58
2022/02/16 14:07:26;;;;;;;6.50;3.60;;;;;;;12.07;39.90;97999.00;218079;1290;138678;-58
2022/02/16 14:12:50;;;;;;;6.20;3.50;;;;;;;11.86;40.17;97985.48;218162;1290;139579;-58
2022/02/16 14:17:53;;;;;;;7.00;3.80;;;;;;;11.75;40.28;97973.59;218451;1290;139199;-56
2022/02/16 14:22:56;;;;;;;7.90;3.40;;;;;;;11.67;39.67;97964.35;218252;1290;139348;-58
2022/02/16 14:27:59;;;;;;;7.70;3.30;;;;;;;11.55;40.24;97936.13;218141;1290;139620;-58
2022/02/16 14:33:03;;;;;;;5.20;2.80;;;;;;;11.47;39.86;97951.27;218059;1289;139330;-58
2022/02/16 14:38:06;;;;;;;7.90;3.40;;;;;;;11.34;39.82;97948.89;217493;1290;140596;-57
2022/02/16 14:43:09;;;;;;;5.60;3.10;;;;;;;11.27;39.86;97925.02;218193;1290;140455;-58
2022/02/16 14:48:14;;;;;;;27.10;14.30;;;;;;;11.25;39.87;97914.35;218186;1289;139347;-58
2022/02/16 14:53:18;;;;;;;6.30;3.50;;;;;;;11.33;40.21;97911.16;218458;1289;140464;-56
2022/02/16 14:58:21;;;;;;;8.70;3.30;;;;;;;11.32;39.76;97906.63;218246;1290;140221;-58
2022/02/16 15:03:24;;;;;;;4.90;3.10;;;;;;;11.25;39.60;97894.61;218314;1290;138854;-58
2022/02/16 15:08:27;;;;;;;6.40;3.10;;;;;;;11.16;39.54;97883.89;218473;1289;140797;-56
2022/02/16 15:13:30;;;;;;;6.60;3.40;;;;;;;11.11;39.48;97869.67;218216;1290;139289;-58
2022/02/16 15:18:34;;;;;;;9.90;3.80;;;;;;;11.07;40.07;97854.02;218165;1290;140297;-59
2022/02/16 15:23:37;;;;;;;8.10;3.80;;;;;;;11.03;40.03;97851.73;218099;1290;138923;-56
2022/02/16 15:28:40;;;;;;;10.10;3.90;;;;;;;10.95;40.10;97844.05;218819;1287;139470;-58
2022/02/16 15:33:43;;;;;;;9.90;4.10;;;;;;;10.88;39.96;97839.87;219017;1288;138948;-57
2022/02/16 15:38:49;;;;;;;7.20;3.70;;;;;;;10.83;40.21;97825.90;219064;1288;139010;-56
2022/02/16 15:43:53;;;;;;;7.80;3.50;;;;;;;10.80;40.44;97814.77;218952;1288;139817;-57
2022/02/16 15:48:57;;;;;;;7.30;3.00;;;;;;;10.77;40.08;97815.59;219096;1287;139226;-55
2022/02/16 15:54:00;;;;;;;4.20;2.80;;;;;;;10.70;40.25;97816.51;219146;1288;138819;-58
2022/02/16 15:59:04;;;;;;;10.80;4.70;;;;;;;10.71;40.53;97810.58;218850;1289;138753;-56
2022/02/16 16:04:07;;;;;;;7.10;2.60;;;;;;;10.75;40.51;97803.09;218926;1288;139499;-58
2022/02/16 16:09:10;;;;;;;6.30;3.20;;;;;;;10.70;39.94;97802.29;219113;1288;140278;-58
2022/02/16 16:14:14;;;;;;;10.00;4.40;;;;;;;10.68;40.39;97801.76;219055;1288;140081;-56
2022/02/16 16:19:18;;;;;;;10.60;6.00;;;;;;;10.70;40.32;97781.54;219092;1287;140384;-57
2022/02/16 16:24:22;;;;;;;9.10;3.20;;;;;;;10.77;40.17;97767.84;219104;1289;139320;-59
2022/02/16 16:29:25;;;;;;;6.10;3.10;;;;;;;10.73;40.36;97753.11;219013;1288;140032;-56
2022/02/16 16:34:28;;;;;;;8.50;3.20;;;;;;;10.63;39.96;97756.52;218852;1288;139163;-57
2022/02/16 16:39:31;;;;;;;13.30;4.40;;;;;;;10.60;40.39;97757.36;219100;1287;139268;-55
2022/02/16 16:44:34;;;;;;;6.90;3.60;;;;;;;10.57;39.60;97751.76;218947;1287;282016;-59
2022/02/16 16:49:38;;;;;;;9.60;5.80;;;;;;;10.47;39.93;97743.34;218444;1287;139631;-58
2022/02/16 16:54:42;;;;;;;12.80;6.30;;;;;;;10.47;40.32;97742.86;219174;1287;140994;-59
2022/02/16 16:59:45;;;;;;;9.30;4.90;;;;;;;10.50;40.48;97751.65;218944;1287;138923;-58
2022/02/16 17:04:48;;;;;;;7.50;4.70;;;;;;;10.43;40.53;97760.88;218805;1290;138947;-58
2022/02/16 17:09:51;;;;;;;11.50;5.30;;;;;;;10.34;40.84;97761.77;219039;1288;138841;-59
2022/02/16 17:14:54;;;;;;;10.30;4.90;;;;;;;10.28;41.23;97765.80;219086;1288;139207;-59
2022/02/16 17:19:58;;;;;;;12.60;5.00;;;;;;;10.22;41.22;97771.80;218944;1288;139401;-59
2022/02/16 17:25:08;;;;;;;9.80;5.20;;;;;;;10.17;41.42;97762.83;219036;1289;139645;-59
2022/02/16 17:30:11;;;;;;;8.60;5.00;;;;;;;10.10;41.64;97732.67;219217;1287;138998;-59
2022/02/16 17:35:14;;;;;;;15.90;5.50;;;;;;;10.08;41.53;97722.73;218784;1288;139220;-59
2022/02/16 17:40:19;;;;;;;12.10;4.80;;;;;;;10.07;41.86;97721.24;219313;1287;141805;-58
2022/02/16 17:45:25;;;;;;;;;;;;;;;10.08;41.92;97719.02;218987;1287;139090;-59
2022/02/16 17:50:28;;;;;;;9.30;4.60;;;;;;;10.10;41.91;97703.27;218976;1288;126047;-59
2022/02/16 17:55:31;;;;;;;14.90;7.10;;;;;;;10.07;42.20;97688.30;219137;1288;139034;-59
2022/02/16 18:00:35;;;;;;;14.70;6.70;;;;;;;10.11;42.42;97700.55;218963;1288;139930;-58
2022/02/16 18:05:42;;;;;;;7.00;2.80;;;;;;;10.19;42.31;97700.03;219011;1288;139674;-54
2022/02/16 18:10:45;;;;;;;5.80;2.20;;;;;;;10.17;42.42;97695.27;218686;1289;139081;-60
2022/02/16 18:15:48;;;;;;;6.50;2.40;;;;;;;10.12;42.81;97696.91;219053;1289;139682;-56
2022/02/16 18:20:52;;;;;;;4.00;2.30;;;;;;;10.08;43.09;97693.01;219129;1289;139262;-59
2022/02/16 18:25:55;;;;;;;8.60;2.50;;;;;;;10.03;43.30;97695.92;219280;1287;139955;-58
2022/02/16 18:30:58;;;;;;;4.10;2.10;;;;;;;10.01;43.67;97684.90;219078;1288;139565;-59
2022/02/16 18:36:01;;;;;;;4.70;2.40;;;;;;;9.98;43.95;97677.71;218991;1287;138857;-57
2022/02/16 18:41:06;;;;;;;5.30;2.50;;;;;;;9.94;44.14;97668.74;218809;1287;139660;-58
2022/02/16 18:46:10;;;;;;;5.70;2.50;;;;;;;9.94;44.44;97669.33;219124;1288;138779;-58
2022/02/16 18:51:13;;;;;;;10.80;5.30;;;;;;;10.00;45.59;97666.33;218952;1288;138926;-62
2022/02/16 18:56:19;;;;;;;5.40;3.00;;;;;;;10.12;45.33;97665.15;219018;1288;139606;-59
2022/02/16 19:01:34;;;;;;;4.50;2.90;;;;;;;10.08;45.49;97666.91;219172;1288;138790;-60
2022/02/16 19:06:38;;;;;;;6.90;3.00;;;;;;;10.04;45.48;97658.73;219026;1286;139080;-61
2022/02/16 19:11:41;;;;;;;5.40;2.80;;;;;;;10.02;45.54;97647.63;218795;1289;138824;-60
2022/02/16 19:16:44;;;;;;;5.70;3.20;;;;;;;10.01;45.78;97665.77;219250;1288;138631;-60
2022/02/16 19:21:50;;;;;;;4.70;2.60;;;;;;;10.03;46.19;97686.16;219117;1287;139214;-59
2022/02/16 19:26:53;;;;;;;6.60;3.00;;;;;;;10.03;46.41;97681.16;218943;1287;139355;-60
2022/02/16 19:31:57;;;;;;;4.10;2.90;;;;;;;10.03;46.60;97672.70;218934;1287;138618;-59
2022/02/16 19:37:00;;;;;;;5.80;3.00;;;;;;;10.04;46.67;97661.10;218928;1287;139005;-61
2022/02/16 19:42:04;;;;;;;5.80;3.20;;;;;;;10.04;46.77;97663.89;219276;1288;139095;-61
2022/02/16 19:47:08;;;;;;;5.50;3.10;;;;;;;10.02;46.84;97669.70;218883;1288;139545;-62
2022/02/16 19:52:11;;;;;;;5.00;3.30;;;;;;;9.99;46.70;97670.76;218939;1288;142076;-61
2022/02/16 19:57:14;;;;;;;6.80;3.80;;;;;;;9.93;47.22;97676.30;218837;1288;139251;-61
2022/02/16 20:02:18;;;;;;;5.30;3.30;;;;;;;9.90;47.26;97679.77;219127;1288;138957;-60
2022/02/16 20:07:21;;;;;;;6.30;3.50;;;;;;;9.89;47.53;97663.73;218941;1287;139322;-60
2022/02/16 20:12:24;;;;;;;13.90;8.60;;;;;;;9.85;47.91;97649.37;219112;1288;140149;-65
2022/02/16 20:17:30;;;;;;;6.10;3.30;;;;;;;9.82;47.81;97624.45;219056;1288;139482;-61
2022/02/16 20:22:33;;;;;;;4.90;3.00;;;;;;;9.80;47.98;97606.19;218743;1287;138441;-63
2022/02/16 20:27:37;;;;;;;5.00;2.90;;;;;;;9.77;48.33;97603.57;219071;1287;141493;-62
2022/02/16 20:32:42;;;;;;;5.70;2.70;;;;;;;9.73;48.22;97594.71;219085;1288;138872;-59
2022/02/16 20:37:45;;;;;;;5.40;2.50;;;;;;;9.68;48.39;97592.75;218983;1288;138822;-58
2022/02/16 20:42:52;;;;;;;4.40;2.60;;;;;;;9.66;48.55;97591.52;218699;1288;138918;-57
2022/02/16 20:47:55;;;;;;;3.50;2.20;;;;;;;9.65;48.75;97592.50;219323;1287;138933;-60
2022/02/16 20:53:00;;;;;;;3.80;2.40;;;;;;;9.65;48.85;97580.11;218958;1288;138462;-60
2022/02/16 20:58:04;;;;;;;4.90;2.50;;;;;;;9.64;48.79;97553.64;218898;1288;138628;-57
2022/02/16 21:03:12;;;;;;;4.70;2.40;;;;;;;9.60;48.94;97540.00;219251;1287;138644;-60
2022/02/16 21:08:17;;;;;;;5.40;2.70;;;;;;;9.56;48.97;97538.33;219010;1287;139677;-59
2022/02/16 21:13:25;;;;;;;4.40;2.40;;;;;;;9.55;48.99;97540.26;219230;1288;139435;-59
2022/02/16 21:18:31;;;;;;;3.10;2.10;;;;;;;9.53;48.93;97536.12;219144;1288;138836;-61
2022/02/16 21:23:34;;;;;;;7.70;2.30;;;;;;;9.50;49.41;97544.70;219407;1287;141349;-62
2022/02/16 21:28:38;;;;;;;6.00;2.20;;;;;;;9.47;49.29;97542.63;219004;1288;139490;-60
2022/02/16 21:34:02;;;;;;;4.60;2.30;;;;;;;9.45;49.79;97541.95;219064;1286;138814;-61
2022/02/16 21:39:06;;;;;;;2.60;1.80;;;;;;;9.44;49.76;97527.61;219294;1288;138893;-60
2022/02/16 21:44:09;;;;;;;4.00;2.50;;;;;;;9.45;50.02;97504.41;219006;1287;139340;-61
2022/02/16 21:49:12;;;;;;;7.00;2.10;;;;;;;9.45;50.03;97486.89;219076;1288;139529;-62
2022/02/16 21:54:15;;;;;;;3.10;2.00;;;;;;;9.45;50.11;97486.73;218973;1287;138988;-62
2022/02/16 21:59:18;;;;;;;2.40;1.80;;;;;;;9.48;50.47;97481.70;219244;1288;139129;-59
2022/02/16 22:04:21;;;;;;;3.10;1.90;;;;;;;9.49;50.56;97478.23;218916;1289;138752;-60
2022/02/16 22:09:25;;;;;;;4.20;1.80;;;;;;;9.53;50.57;97472.80;218865;1288;139470;-61
2022/02/16 22:14:28;;;;;;;3.50;1.70;;;;;;;9.56;50.63;97471.08;218994;1288;138749;-60
2022/02/16 22:19:31;;;;;;;5.30;1.70;;;;;;;9.61;50.83;97462.02;219345;1288;138836;-59
2022/02/16 22:24:34;;;;;;;3.00;1.80;;;;;;;9.63;50.82;97440.01;219160;1288;139048;-60
2022/02/16 22:29:37;;;;;;;2.70;1.70;;;;;;;9.65;50.61;97425.90;219382;1288;138734;-62
2022/02/16 22:34:40;;;;;;;3.00;1.70;;;;;;;9.65;50.91;97409.10;219139;1287;139261;-60
2022/02/16 22:39:43;;;;;;;4.20;1.70;;;;;;;9.63;51.13;97397.88;219034;1288;139209;-61
2022/02/16 22:44:46;;;;;;;7.90;3.80;;;;;;;9.63;51.24;97377.14;219263;1288;139175;-61
2022/02/16 22:49:50;;;;;;;2.40;1.60;;;;;;;9.67;51.12;97373.27;219279;1288;139397;-68
2022/02/16 22:54:53;;;;;;;2.80;1.40;;;;;;;9.67;51.51;97360.91;219076;1287;138559;-70
2022/02/16 22:59:56;;;;;;;4.00;1.30;;;;;;;9.66;51.61;97380.98;219336;1288;138766;-63
2022/02/16 23:10:31;;;;;;;4.40;1.30;;;;;;;9.68;52.07;97357.98;219467;1287;138798;-61
2022/02/16 23:15:39;;;;;;;5.30;1.20;;;;;;;9.69;52.02;97337.75;218926;1288;139867;-59
2022/02/16 23:20:42;;;;;;;2.00;1.20;;;;;;;9.68;52.10;97304.52;219303;1288;138656;-58
2022/02/16 23:25:45;;;;;;;2.60;1.20;;;;;;;9.68;52.37;97295.11;219399;1288;139694;-60